Time;durP1;ratioP1;P1;durP2;ratioP2;P2;SDS_P1;SDS_P2;PMS_P1;PMS_P2;Temp;Humidity;BMP_temperature;BMP_pressure;BME280_temperature;BME280_humidity;BME280_pressure;Samples;Min_cycle;Max_cycle;Signal;HPM_P1;HPM_P2
2022/01/21 00:00:50;;;;;;;11.35;2.35;;;2.40;99.90;;;;;;4784683;29;20043;-64
2022/01/21 00:03:16;;;;;;;17.20;2.50;;;2.50;99.90;;;;;;4785928;29;20536;-65
2022/01/21 00:05:42;;;;;;;12.32;2.13;;;2.50;99.90;;;;;;4785688;29;20094;-64
2022/01/21 00:08:08;;;;;;;21.92;3.03;;;2.50;99.90;;;;;;4784262;29;20062;-64
2022/01/21 00:10:33;;;;;;;14.68;2.63;;;2.50;99.90;;;;;;4769795;29;20086;-64
2022/01/21 00:12:59;;;;;;;11.57;2.33;;;2.50;99.90;;;;;;4784240;29;20071;-64
2022/01/21 00:15:25;;;;;;;10.98;2.05;;;2.50;99.90;;;;;;4785634;29;20059;-64
2022/01/21 00:17:50;;;;;;;13.15;1.80;;;2.40;99.90;;;;;;4783194;29;20039;-64
2022/01/21 00:31:14;;;;;;;14.60;2.78;;;2.20;99.90;;;;;;4785402;29;20077;-64
2022/01/21 00:33:39;;;;;;;11.30;2.58;;;2.20;99.90;;;;;;4767706;29;20489;-64
2022/01/21 00:36:06;;;;;;;13.10;2.40;;;2.10;99.90;;;;;;4784475;29;20046;-64
2022/01/21 00:38:32;;;;;;;11.35;2.75;;;2.20;99.90;;;;;;4784229;29;20047;-64
2022/01/21 00:41:02;;;;;;;18.27;2.53;;;2.20;99.90;;;;;;4784248;29;20062;-64
2022/01/21 00:43:32;;;;;;;17.23;2.65;;;2.20;99.90;;;;;;4784591;29;20408;-64
2022/01/21 00:45:59;;;;;;;18.55;3.03;;;2.20;99.90;;;;;;4783834;29;20051;-64
2022/01/21 00:48:26;;;;;;;15.13;2.83;;;2.20;99.90;;;;;;4782971;29;20108;-64
2022/01/21 00:50:52;;;;;;;15.02;2.53;;;2.20;99.90;;;;;;4785264;29;20150;-64
2022/01/21 00:53:18;;;;;;;13.82;2.65;;;2.20;99.90;;;;;;4768852;29;20458;-64
2022/01/21 00:55:44;;;;;;;18.83;2.40;;;2.20;99.90;;;;;;4783743;29;20055;-64
2022/01/21 00:58:10;;;;;;;11.50;2.65;;;2.10;99.90;;;;;;4785261;29;20059;-64
2022/01/21 01:00:36;;;;;;;17.42;2.75;;;2.10;99.90;;;;;;4783879;29;20181;-64
2022/01/21 01:03:03;;;;;;;12.80;2.50;;;2.10;99.90;;;;;;4784744;29;20043;-64
2022/01/21 01:05:29;;;;;;;12.38;2.90;;;2.10;99.90;;;;;;4784897;29;20062;-64
2022/01/21 01:07:55;;;;;;;14.45;2.42;;;2.00;99.90;;;;;;4783476;29;20043;-64
2022/01/21 01:10:39;;;;;;;12.02;1.98;;;2.00;99.90;;;;;;4783768;29;20130;-64
2022/01/21 01:21:30;;;;;;;13.98;2.60;;;1.90;99.90;;;;;;4785151;29;20055;-64
2022/01/21 01:29:19;;;;;;;15.75;2.47;;;1.80;99.90;;;;;;4783690;29;20047;-64
2022/01/21 01:31:46;;;;;;;15.68;2.75;;;2.20;99.90;;;;;;4782059;29;20043;-64
2022/01/21 01:34:13;;;;;;;15.00;2.42;;;1.80;99.90;;;;;;4783549;29;20074;-64
2022/01/21 01:36:42;;;;;;;12.05;2.47;;;1.80;99.90;;;;;;4767280;29;20054;-64
2022/01/21 01:39:18;;;;;;;13.38;2.65;;;1.80;99.90;;;;;;4767242;29;20138;-64
2022/01/21 01:41:55;;;;;;;10.55;2.25;;;1.80;99.90;;;;;;4783506;29;20089;-64
2022/01/21 01:49:49;;;;;;;10.55;1.90;;;1.90;99.90;;;;;;4783289;29;20062;-63
2022/01/21 01:52:17;;;;;;;15.13;2.38;;;2.00;99.90;;;;;;4782066;29;20042;-63
2022/01/21 01:54:53;;;;;;;9.02;1.80;;;2.00;99.90;;;;;;4782953;29;20050;-63
2022/01/21 01:57:19;;;;;;;8.57;2.30;;;2.00;99.90;;;;;;4782718;29;20118;-63
2022/01/21 01:59:45;;;;;;;13.00;2.28;;;2.10;99.90;;;;;;4782582;29;20068;-63
2022/01/21 02:02:13;;;;;;;14.20;2.25;;;2.10;99.90;;;;;;4782983;29;20453;-63
2022/01/21 02:04:42;;;;;;;10.98;2.13;;;2.10;99.90;;;;;;4767510;29;20051;-63
2022/01/21 02:07:08;;;;;;;12.68;2.20;;;2.10;99.90;;;;;;4783247;29;20047;-63
2022/01/21 02:09:35;;;;;;;13.55;2.45;;;2.40;99.90;;;;;;4783502;29;20515;-63
2022/01/21 02:12:03;;;;;;;10.80;1.88;;;2.20;99.90;;;;;;4781435;29;20822;-63
2022/01/21 02:14:33;;;;;;;11.73;1.83;;;2.20;99.90;;;;;;4781713;29;20058;-63
2022/01/21 02:22:10;;;;;;;9.60;2.55;;;2.30;99.90;;;;;;4783361;29;20075;-63
2022/01/21 02:24:49;;;;;;;14.05;1.90;;;2.20;99.90;;;;;;4766702;29;20061;-63
2022/01/21 02:27:15;;;;;;;11.07;1.80;;;2.20;99.90;;;;;;4783339;29;20114;-63
2022/01/21 02:29:47;;;;;;;9.48;1.48;;;2.10;99.90;;;;;;4782810;29;20050;-63
2022/01/21 02:32:14;;;;;;;8.18;2.03;;;2.20;99.90;;;;;;4781788;29;20051;-63
2022/01/21 02:34:41;;;;;;;9.88;1.85;;;2.10;99.90;;;;;;4783255;29;20050;-63
2022/01/21 02:37:07;;;;;;;13.50;2.33;;;2.10;99.90;;;;;;4782863;29;20118;-63
2022/01/21 02:39:33;;;;;;;11.35;1.80;;;2.10;99.90;;;;;;4767163;29;20070;-63
2022/01/21 02:41:59;;;;;;;13.95;2.38;;;2.10;99.90;;;;;;4782496;29;20043;-63
2022/01/21 02:44:25;;;;;;;13.68;2.55;;;2.10;99.90;;;;;;4782839;29;20553;-63
2022/01/21 02:46:59;;;;;;;11.38;1.90;;;2.10;99.90;;;;;;4782277;29;20047;-63
2022/01/21 02:49:26;;;;;;;7.15;1.27;;;2.10;99.90;;;;;;4781907;29;20507;-63
2022/01/21 02:51:57;;;;;;;8.93;1.60;;;2.00;99.90;;;;;;4783082;29;20051;-63
2022/01/21 02:54:23;;;;;;;9.65;1.67;;;2.00;99.90;;;;;;4782905;29;20587;-63
2022/01/21 02:56:49;;;;;;;11.18;1.90;;;2.00;99.90;;;;;;4782582;29;20050;-63
2022/01/21 02:59:15;;;;;;;10.95;1.80;;;1.90;99.90;;;;;;4781730;29;20051;-63
2022/01/21 03:01:43;;;;;;;15.70;2.22;;;1.90;99.90;;;;;;4781848;29;20039;-63
2022/01/21 03:04:14;;;;;;;19.05;1.98;;;1.90;99.90;;;;;;4782535;29;20148;-63
2022/01/21 03:06:41;;;;;;;14.07;1.75;;;1.90;99.90;;;;;;4782439;29;20059;-63
2022/01/21 03:09:08;;;;;;;8.45;1.48;;;1.90;99.90;;;;;;4766324;29;20077;-67
2022/01/21 03:11:34;;;;;;;10.77;1.67;;;1.90;99.90;;;;;;4765695;29;21424;-63
2022/01/21 03:14:00;;;;;;;11.23;1.88;;;1.90;99.90;;;;;;4781342;29;20080;-63
2022/01/21 03:16:27;;;;;;;12.48;1.90;;;1.90;99.90;;;;;;4781018;29;20390;-63
2022/01/21 03:18:53;;;;;;;8.10;1.83;;;1.90;99.90;;;;;;4781090;29;20078;-64
2022/01/21 03:21:19;;;;;;;14.80;2.42;;;1.90;99.90;;;;;;4782025;29;20055;-63
2022/01/21 03:23:47;;;;;;;11.95;2.55;;;1.80;99.90;;;;;;4779674;29;20477;-63
2022/01/21 03:26:23;;;;;;;10.50;2.00;;;1.80;99.90;;;;;;4781718;29;20093;-63
2022/01/21 03:28:57;;;;;;;11.82;1.98;;;1.80;99.90;;;;;;4780313;29;20055;-63
2022/01/21 03:31:24;;;;;;;10.30;1.92;;;1.80;99.90;;;;;;4765624;29;20047;-63
2022/01/21 03:33:50;;;;;;;12.65;2.60;;;1.70;99.90;;;;;;4781373;29;20388;-63
2022/01/21 03:36:16;;;;;;;11.40;2.25;;;1.70;99.90;;;;;;4780781;29;20185;-63
2022/01/21 03:38:42;;;;;;;11.20;1.75;;;1.70;99.90;;;;;;4749561;29;20049;-63
2022/01/21 03:41:09;;;;;;;14.32;1.73;;;1.70;99.90;;;;;;4765800;29;20040;-63
2022/01/21 03:43:35;;;;;;;7.20;1.48;;;2.70;99.90;;;;;;4780573;29;20047;-63
2022/01/21 03:46:02;;;;;;;9.82;1.52;;;1.60;99.90;;;;;;4780772;29;20051;-63
2022/01/21 03:48:28;;;;;;;14.18;1.77;;;1.70;99.90;;;;;;4782489;29;20055;-63
2022/01/21 03:50:54;;;;;;;13.60;1.70;;;1.80;99.90;;;;;;4782163;29;20044;-63
2022/01/21 03:53:20;;;;;;;7.70;1.60;;;1.70;99.90;;;;;;4782437;29;20120;-63
2022/01/21 03:55:46;;;;;;;12.60;1.77;;;1.70;99.90;;;;;;4782130;29;20055;-63
2022/01/21 03:58:13;;;;;;;9.40;1.75;;;1.70;99.90;;;;;;4782051;29;20374;-63
2022/01/21 04:00:45;;;;;;;8.27;1.83;;;1.60;99.90;;;;;;4781980;29;20105;-63
2022/01/21 04:03:11;;;;;;;13.10;1.88;;;1.60;99.90;;;;;;4782632;29;20475;-63
2022/01/21 04:05:38;;;;;;;19.73;2.22;;;1.70;99.90;;;;;;4780536;29;20044;-63
2022/01/21 04:08:05;;;;;;;11.88;1.73;;;1.70;99.90;;;;;;4765188;29;20105;-63
2022/01/21 04:10:34;;;;;;;11.35;1.98;;;1.70;99.90;;;;;;4765117;29;20130;-63
2022/01/21 04:13:00;;;;;;;14.23;1.88;;;1.70;99.90;;;;;;4781446;29;20394;-63
2022/01/21 04:15:26;;;;;;;16.50;2.03;;;1.70;99.90;;;;;;4782340;29;20116;-64
2022/01/21 04:17:52;;;;;;;9.68;1.70;;;1.70;99.90;;;;;;4782029;29;21568;-63
2022/01/21 04:20:18;;;;;;;10.70;1.92;;;1.70;99.90;;;;;;4780682;29;20174;-63
2022/01/21 04:22:43;;;;;;;9.85;2.20;;;1.70;99.90;;;;;;4784170;29;20450;-63
2022/01/21 04:25:10;;;;;;;14.82;1.63;;;2.50;99.90;;;;;;4784301;29;20102;-63
2022/01/21 04:27:36;;;;;;;7.63;1.88;;;1.60;99.90;;;;;;4785385;29;20081;-63
2022/01/21 04:30:05;;;;;;;10.05;2.05;;;1.60;99.90;;;;;;4783963;29;20099;-63
2022/01/21 04:32:31;;;;;;;12.82;1.92;;;1.60;99.90;;;;;;4782874;29;20552;-63
2022/01/21 04:34:58;;;;;;;6.68;1.23;;;2.90;99.90;;;;;;4784207;29;20043;-63
2022/01/21 04:37:24;;;;;;;10.95;1.80;;;1.50;99.90;;;;;;4785048;29;20082;-63
2022/01/21 04:40:00;;;;;;;12.75;1.83;;;1.50;99.90;;;;;;4785106;29;20118;-63
2022/01/21 04:47:54;;;;;;;14.32;2.00;;;1.50;99.90;;;;;;4784027;29;20084;-63
2022/01/21 04:50:20;;;;;;;10.43;1.40;;;1.70;99.90;;;;;;4785360;29;20039;-64
2022/01/21 04:52:46;;;;;;;9.98;1.40;;;1.60;99.90;;;;;;4784282;29;20043;-63
2022/01/21 04:55:12;;;;;;;11.07;1.75;;;1.60;99.90;;;;;;4785215;29;20043;-63
2022/01/21 04:57:37;;;;;;;6.32;1.52;;;1.70;99.90;;;;;;4784015;29;20163;-63
2022/01/21 05:00:21;;;;;;;12.18;1.58;;;1.70;99.90;;;;;;4784860;29;20092;-63
2022/01/21 05:02:47;;;;;;;4.13;1.58;;;1.70;99.90;;;;;;4783913;29;20095;-63
2022/01/21 05:05:13;;;;;;;10.73;1.60;;;1.70;99.90;;;;;;4784119;29;20070;-63
2022/01/21 05:07:40;;;;;;;11.13;1.40;;;1.70;99.90;;;;;;4784538;29;20047;-63
2022/01/21 05:10:07;;;;;;;11.02;1.80;;;1.80;99.90;;;;;;4782489;29;20066;-63
2022/01/21 05:12:33;;;;;;;11.95;1.85;;;1.80;99.90;;;;;;4784469;29;20104;-63
2022/01/21 05:17:26;;;;;;;11.35;1.75;;;1.90;99.90;;;;;;4784797;29;20055;-67
2022/01/21 05:19:52;;;;;;;9.65;1.45;;;1.80;99.90;;;;;;4784661;29;20114;-68
2022/01/21 05:22:18;;;;;;;11.23;1.65;;;1.80;99.90;;;;;;4783783;29;20055;-68
2022/01/21 05:24:44;;;;;;;8.38;1.60;;;1.80;99.90;;;;;;4784008;29;20251;-69
2022/01/21 05:27:12;;;;;;;11.43;1.67;;;1.80;99.90;;;;;;4767957;29;20138;-67
2022/01/21 05:29:39;;;;;;;9.93;1.52;;;1.80;99.90;;;;;;4783490;29;20120;-68
2022/01/21 05:32:05;;;;;;;16.48;2.00;;;1.80;99.90;;;;;;4782950;29;20050;-68
2022/01/21 05:34:31;;;;;;;9.48;1.55;;;1.80;99.90;;;;;;4767375;29;20043;-67
2022/01/21 05:36:57;;;;;;;7.68;1.40;;;1.70;99.90;;;;;;4767622;29;20120;-67
2022/01/21 05:39:23;;;;;;;6.97;1.85;;;1.70;99.90;;;;;;4783973;29;20055;-67
2022/01/21 05:41:51;;;;;;;11.57;1.65;;;1.70;99.90;;;;;;4782154;29;20470;-67
2022/01/21 05:49:41;;;;;;;13.45;1.77;;;1.70;99.90;;;;;;4783797;29;20059;-67
2022/01/21 05:52:16;;;;;;;8.80;1.65;;;1.60;99.90;;;;;;4782526;29;20124;-68
2022/01/21 05:54:44;;;;;;;7.50;1.27;;;1.70;99.90;;;;;;4784240;29;20097;-68
2022/01/21 05:57:12;;;;;;;8.13;1.67;;;1.70;99.90;;;;;;4783624;29;20142;-67
2022/01/21 05:59:38;;;;;;;9.80;1.83;;;1.70;99.90;;;;;;4783904;29;20186;-67
2022/01/21 06:02:05;;;;;;;10.02;1.60;;;1.70;99.90;;;;;;4784143;29;20051;-67
2022/01/21 06:04:33;;;;;;;7.28;1.30;;;1.70;99.90;;;;;;4783014;29;20062;-67
2022/01/21 06:07:00;;;;;;;12.77;1.70;;;1.80;99.90;;;;;;4783256;29;20057;-67
2022/01/21 06:09:27;;;;;;;11.70;1.70;;;1.70;99.90;;;;;;4781813;29;20420;-68
2022/01/21 06:11:53;;;;;;;8.63;1.20;;;1.70;99.90;;;;;;4782132;29;20059;-67
2022/01/21 06:14:19;;;;;;;9.80;1.65;;;1.70;99.90;;;;;;4782824;29;20492;-67
2022/01/21 06:16:45;;;;;;;8.90;1.38;;;1.70;99.90;;;;;;4783601;29;20105;-67
2022/01/21 06:19:11;;;;;;;9.82;1.63;;;1.70;99.90;;;;;;4783449;29;20102;-67
2022/01/21 06:21:37;;;;;;;7.05;1.38;;;1.70;99.90;;;;;;4783755;29;20120;-67
2022/01/21 06:24:02;;;;;;;15.02;1.98;;;1.60;99.90;;;;;;4783725;29;20031;-67
2022/01/21 06:26:28;;;;;;;10.45;2.15;;;1.60;99.90;;;;;;4783182;29;20043;-68
2022/01/21 06:28:54;;;;;;;10.50;2.50;;;1.60;99.90;;;;;;4781963;29;20092;-67
2022/01/21 06:31:20;;;;;;;9.90;2.70;;;1.60;99.90;;;;;;4782828;29;20043;-68
2022/01/21 06:33:45;;;;;;;11.95;2.45;;;1.60;99.90;;;;;;4781712;29;20049;-67
2022/01/21 06:36:12;;;;;;;11.27;2.00;;;1.70;99.90;;;;;;4781461;29;20553;-68
2022/01/21 06:38:38;;;;;;;11.20;1.95;;;1.70;99.90;;;;;;4782318;29;20081;-67
2022/01/21 06:41:04;;;;;;;11.93;1.92;;;1.90;99.90;;;;;;4782525;29;20043;-68
2022/01/21 06:43:29;;;;;;;10.68;1.63;;;1.80;99.90;;;;;;4783174;29;20451;-67
2022/01/21 06:45:55;;;;;;;9.77;1.65;;;1.80;99.90;;;;;;4782249;29;20035;-67
2022/01/21 06:48:21;;;;;;;12.40;1.50;;;1.80;99.90;;;;;;4781551;29;20393;-68
2022/01/21 06:50:46;;;;;;;6.22;1.30;;;1.80;99.90;;;;;;4781048;29;20070;-68
2022/01/21 06:53:12;;;;;;;11.25;2.08;;;1.90;99.90;;;;;;4779730;29;20047;-67
2022/01/21 06:55:38;;;;;;;11.13;2.00;;;1.90;99.90;;;;;;4780096;29;20062;-67
2022/01/21 06:58:05;;;;;;;14.80;1.60;;;1.90;99.90;;;;;;4782951;29;20081;-67
2022/01/21 07:00:30;;;;;;;8.50;1.27;;;1.90;99.90;;;;;;4781023;29;20358;-67
2022/01/21 07:02:56;;;;;;;15.18;1.90;;;2.00;99.90;;;;;;4782318;29;20046;-67
2022/01/21 07:05:22;;;;;;;8.95;1.85;;;2.00;99.90;;;;;;4780965;29;20048;-67
2022/01/21 07:07:49;;;;;;;8.10;1.23;;;2.00;99.90;;;;;;4781941;29;20051;-67
2022/01/21 07:10:16;;;;;;;9.70;1.50;;;2.00;99.90;;;;;;4782470;29;20536;-67
2022/01/21 07:12:43;;;;;;;11.70;1.80;;;1.90;99.90;;;;;;4783348;29;20131;-67
2022/01/21 07:15:11;;;;;;;11.57;1.60;;;1.90;99.90;;;;;;4781099;29;20106;-67
2022/01/21 07:17:37;;;;;;;8.48;1.45;;;1.90;99.90;;;;;;4782008;29;20043;-67
2022/01/21 07:20:04;;;;;;;13.80;1.83;;;1.90;99.90;;;;;;4782261;29;20101;-67
2022/01/21 07:22:31;;;;;;;9.43;1.50;;;1.90;99.90;;;;;;4782139;29;21377;-67
2022/01/21 07:24:58;;;;;;;7.43;1.90;;;1.90;99.90;;;;;;4780998;29;20187;-67
2022/01/21 07:27:24;;;;;;;11.57;2.00;;;1.90;99.90;;;;;;4783345;29;20047;-67
2022/01/21 07:29:49;;;;;;;6.15;2.20;;;1.80;99.90;;;;;;4781039;29;20104;-67
2022/01/21 07:32:15;;;;;;;14.20;2.17;;;2.00;99.90;;;;;;4781783;29;20067;-67
2022/01/21 07:34:41;;;;;;;7.57;1.95;;;1.80;99.90;;;;;;4782299;29;20122;-67
2022/01/21 07:37:07;;;;;;;8.52;2.00;;;1.80;99.90;;;;;;4782643;29;20044;-67
2022/01/21 07:39:33;;;;;;;11.85;2.38;;;1.80;99.90;;;;;;4780116;29;20114;-67
2022/01/21 07:41:58;;;;;;;9.20;1.70;;;1.80;99.90;;;;;;4782471;29;20077;-67
2022/01/21 07:44:43;;;;;;;9.40;1.83;;;1.80;99.90;;;;;;4782920;29;20039;-67
2022/01/21 07:47:08;;;;;;;14.68;2.00;;;1.80;99.90;;;;;;4781575;29;20051;-68
2022/01/21 07:49:34;;;;;;;10.50;2.15;;;1.80;99.90;;;;;;4765141;29;20047;-68
2022/01/21 07:52:00;;;;;;;10.93;2.05;;;1.80;99.90;;;;;;4779184;29;20074;-67
2022/01/21 07:54:26;;;;;;;14.10;1.80;;;1.80;99.90;;;;;;4778045;29;20085;-67
2022/01/21 07:56:52;;;;;;;8.35;1.95;;;1.80;99.90;;;;;;4783802;29;20040;-67
2022/01/21 07:59:18;;;;;;;11.27;2.40;;;1.90;99.90;;;;;;4785660;29;20462;-67
2022/01/21 08:01:44;;;;;;;13.52;2.45;;;1.90;99.90;;;;;;4784194;29;20047;-68
2022/01/21 08:04:11;;;;;;;11.38;1.70;;;2.00;99.90;;;;;;4786006;29;20594;-67
2022/01/21 08:06:37;;;;;;;12.57;2.03;;;2.00;99.90;;;;;;4785015;29;20138;-67
2022/01/21 08:09:04;;;;;;;14.52;2.28;;;2.00;99.90;;;;;;4786170;29;20212;-67
2022/01/21 08:11:30;;;;;;;10.70;1.67;;;2.00;99.90;;;;;;4786158;29;20138;-67
2022/01/21 08:13:56;;;;;;;14.20;2.00;;;2.00;99.90;;;;;;4783849;29;20556;-67
2022/01/21 08:16:22;;;;;;;12.52;1.85;;;2.00;99.90;;;;;;4786051;29;20077;-67
2022/01/21 08:18:49;;;;;;;11.30;2.00;;;2.00;99.90;;;;;;4784150;29;20043;-67
2022/01/21 08:21:18;;;;;;;10.07;1.70;;;2.00;99.90;;;;;;4785845;29;20096;-67
2022/01/21 08:23:49;;;;;;;12.98;2.08;;;2.00;99.90;;;;;;4785482;29;20043;-67
2022/01/21 08:26:17;;;;;;;11.73;2.13;;;2.00;99.90;;;;;;4784883;29;20066;-68
2022/01/21 08:28:43;;;;;;;12.93;1.98;;;2.00;99.90;;;;;;4785754;29;20050;-67
2022/01/21 08:31:09;;;;;;;17.85;2.97;;;2.00;99.90;;;;;;4768673;29;20039;-67
2022/01/21 08:33:35;;;;;;;6.57;1.95;;;2.00;99.90;;;;;;4783493;29;20475;-67
2022/01/21 08:36:01;;;;;;;13.60;2.40;;;2.00;99.90;;;;;;4782093;29;20063;-67
2022/01/21 08:38:26;;;;;;;6.32;2.03;;;2.50;99.90;;;;;;4783351;29;20417;-67
2022/01/21 08:40:52;;;;;;;15.00;3.22;;;2.10;99.90;;;;;;4783671;29;20066;-67
2022/01/21 08:43:18;;;;;;;25.42;8.93;;;2.10;99.90;;;;;;4783512;29;20504;-67
2022/01/21 08:46:02;;;;;;;15.45;3.75;;;2.20;99.90;;;;;;4784772;29;20466;-67
2022/01/21 08:48:28;;;;;;;13.85;2.50;;;2.30;99.90;;;;;;4781085;29;20120;-67
2022/01/21 08:50:56;;;;;;;17.90;2.60;;;2.30;99.90;;;;;;4783438;29;20429;-67
2022/01/21 08:53:38;;;;;;;20.90;3.15;;;2.40;99.90;;;;;;4783338;29;20063;-67
2022/01/21 08:56:06;;;;;;;24.58;3.53;;;2.50;99.90;;;;;;4780489;29;20117;-68
2022/01/21 08:58:32;;;;;;;15.57;3.05;;;2.60;99.90;;;;;;4784778;29;20086;-68
2022/01/21 09:00:58;;;;;;;15.95;2.85;;;2.60;99.90;;;;;;4782450;29;20051;-67
2022/01/21 09:03:23;;;;;;;16.38;2.65;;;2.70;99.90;;;;;;4781737;29;20046;-67
2022/01/21 09:05:50;;;;;;;12.13;2.67;;;2.70;99.90;;;;;;4781976;29;20146;-67
2022/01/21 09:08:17;;;;;;;12.57;2.78;;;2.80;99.90;;;;;;4782775;29;20089;-67
2022/01/21 09:10:43;;;;;;;14.55;2.50;;;2.90;99.90;;;;;;4779899;29;20522;-67
2022/01/21 09:13:09;;;;;;;11.82;2.50;;;3.10;99.90;;;;;;4780803;29;20055;-67
2022/01/21 09:15:36;;;;;;;16.92;2.50;;;3.20;99.90;;;;;;4784427;29;20556;-67
2022/01/21 09:18:04;;;;;;;13.93;3.10;;;3.30;99.90;;;;;;4783096;29;20047;-67
2022/01/21 09:20:31;;;;;;;19.67;4.07;;;3.40;99.90;;;;;;4782979;29;20394;-67
2022/01/21 09:22:57;;;;;;;17.05;4.45;;;3.60;99.90;;;;;;4782810;29;20043;-67
2022/01/21 09:25:23;;;;;;;22.88;6.07;;;3.60;99.90;;;;;;4781712;29;20082;-67
2022/01/21 09:27:49;;;;;;;29.13;7.43;;;3.60;99.90;;;;;;4783997;29;20493;-67
2022/01/21 09:30:14;;;;;;;33.72;9.30;;;3.70;99.90;;;;;;4783528;29;20062;-67
2022/01/21 09:32:40;;;;;;;29.17;9.63;;;3.70;99.90;;;;;;4783777;29;20043;-67
2022/01/21 09:35:06;;;;;;;32.17;10.65;;;3.70;99.90;;;;;;4783451;29;20116;-67
2022/01/21 09:37:32;;;;;;;33.05;9.02;;;3.70;99.90;;;;;;4783937;29;20454;-67
2022/01/21 09:39:57;;;;;;;25.50;8.52;;;3.70;99.90;;;;;;4782494;29;20124;-67
2022/01/21 09:42:24;;;;;;;17.90;6.82;;;3.70;99.90;;;;;;4783384;29;20603;-69
2022/01/21 09:44:51;;;;;;;20.23;6.20;;;3.70;99.90;;;;;;4780587;29;20055;-67
2022/01/21 09:47:19;;;;;;;20.88;4.75;;;3.70;99.90;;;;;;4780331;29;20058;-67
2022/01/21 09:49:45;;;;;;;25.35;5.13;;;3.80;99.90;;;;;;4779166;29;20039;-67
2022/01/21 09:52:16;;;;;;;17.63;5.03;;;3.90;99.90;;;;;;4782454;29;20081;-67
2022/01/21 09:54:48;;;;;;;19.35;5.18;;;3.90;99.90;;;;;;4782399;29;20102;-68
2022/01/21 09:57:22;;;;;;;22.15;5.47;;;4.00;99.90;;;;;;4781996;29;20070;-68
2022/01/21 09:59:52;;;;;;;21.38;6.90;;;4.10;99.90;;;;;;4767347;29;20123;-69
2022/01/21 10:02:20;;;;;;;18.95;6.07;;;4.20;99.90;;;;;;4782847;29;20074;-68
2022/01/21 10:04:49;;;;;;;19.52;6.43;;;4.30;99.90;;;;;;4781293;29;20063;-68
2022/01/21 10:07:18;;;;;;;18.85;5.60;;;4.30;99.90;;;;;;4783103;29;20063;-68
2022/01/21 10:09:45;;;;;;;22.20;4.72;;;4.70;99.90;;;;;;4780472;29;20059;-68
2022/01/21 10:12:12;;;;;;;16.05;3.80;;;4.50;99.90;;;;;;4781870;29;20475;-68
2022/01/21 10:14:38;;;;;;;24.35;4.82;;;4.40;99.90;;;;;;4782604;29;20066;-68
2022/01/21 10:17:05;;;;;;;12.35;2.88;;;4.40;99.90;;;;;;4782615;29;20526;-68
2022/01/21 10:19:45;;;;;;;20.88;3.08;;;4.50;99.90;;;;;;4782458;29;21356;-68
2022/01/21 10:22:21;;;;;;;18.25;3.78;;;4.50;99.90;;;;;;4767359;29;20409;-68
2022/01/21 10:25:01;;;;;;;18.98;4.45;;;4.90;99.90;;;;;;4781781;29;20100;-68
2022/01/21 10:27:32;;;;;;;23.55;4.80;;;4.60;99.90;;;;;;4781959;29;20167;-68
2022/01/21 10:29:58;;;;;;;21.42;5.82;;;4.60;99.90;;;;;;4779946;29;20051;-68
2022/01/21 10:32:35;;;;;;;28.88;6.22;;;4.60;99.90;;;;;;4781982;29;20497;-67
2022/01/21 10:35:02;;;;;;;30.67;5.80;;;4.70;99.90;;;;;;4781522;29;20043;-68
2022/01/21 10:37:35;;;;;;;30.20;5.20;;;4.80;99.90;;;;;;4781514;29;20055;-67
2022/01/21 10:40:06;;;;;;;19.83;4.05;;;4.80;99.90;;;;;;4781501;29;20051;-69
2022/01/21 10:42:32;;;;;;;16.45;3.63;;;4.90;99.90;;;;;;4781952;29;20047;-68
2022/01/21 10:44:59;;;;;;;22.83;4.07;;;5.20;99.90;;;;;;4781767;29;20074;-68
2022/01/21 10:47:31;;;;;;;20.63;4.18;;;5.10;99.90;;;;;;4781617;29;20144;-68
2022/01/21 10:50:00;;;;;;;23.48;5.15;;;5.50;99.90;;;;;;4781111;29;20051;-68
2022/01/21 10:52:38;;;;;;;25.10;5.68;;;5.30;99.90;;;;;;4782173;29;20043;-68
2022/01/21 10:55:24;;;;;;;27.73;6.38;;;5.40;99.90;;;;;;4774802;29;20476;-68
2022/01/21 10:58:02;;;;;;;;;;;5.40;99.90;;;;;;4783089;29;20605;-68
2022/01/21 11:00:28;;;;;;;23.08;4.78;;;5.50;99.90;;;;;;4780235;29;19926;-68
2022/01/21 11:02:54;;;;;;;33.53;4.57;;;5.50;99.90;;;;;;4783506;29;20039;-68
2022/01/21 11:05:20;;;;;;;14.55;3.50;;;5.70;99.90;;;;;;4780012;29;20122;-68
2022/01/21 11:08:01;;;;;;;18.15;2.95;;;5.80;99.90;;;;;;4765020;29;20417;-68
2022/01/21 11:10:38;;;;;;;14.13;3.00;;;5.90;99.90;;;;;;4781951;29;20055;-68
2022/01/21 11:13:13;;;;;;;12.38;3.15;;;6.10;99.90;;;;;;4780786;29;20047;-68
2022/01/21 11:15:43;;;;;;;18.80;3.30;;;6.00;99.90;;;;;;4780369;29;20504;-67
2022/01/21 11:18:14;;;;;;;14.50;3.40;;;6.20;99.90;;;;;;4780354;29;20070;-67
2022/01/21 11:20:41;;;;;;;16.65;2.15;;;6.30;99.90;;;;;;4780589;29;20055;-67
2022/01/21 11:23:09;;;;;;;11.20;2.03;;;6.40;99.90;;;;;;4780820;29;20184;-66
2022/01/21 11:25:50;;;;;;;11.70;2.25;;;6.50;99.90;;;;;;4782110;29;20067;-67
2022/01/21 11:28:21;;;;;;;12.65;2.25;;;6.80;99.90;;;;;;4783279;29;20086;-67
2022/01/21 11:30:48;;;;;;;23.42;3.20;;;6.60;99.90;;;;;;4781214;29;20401;-67
2022/01/21 11:33:13;;;;;;;14.93;2.70;;;6.70;99.90;;;;;;4781961;29;20058;-67
2022/01/21 11:35:40;;;;;;;22.95;3.00;;;6.70;99.90;;;;;;4780110;29;20048;-67
2022/01/21 11:38:08;;;;;;;15.88;3.53;;;6.80;99.90;;;;;;4782367;29;20499;-67
2022/01/21 11:40:34;;;;;;;13.15;3.47;;;6.70;99.90;;;;;;4780963;29;20562;-67
2022/01/21 11:43:02;;;;;;;17.95;3.58;;;6.70;99.90;;;;;;4780942;29;20103;-67
2022/01/21 11:48:49;;;;;;;13.35;3.15;;;6.70;99.90;;;;;;4783364;29;20283;-67
2022/01/21 11:50:49;;;;;;;13.57;3.25;;;6.70;99.90;;;;;;4780169;29;20059;-67
2022/01/21 11:53:35;;;;;;;19.02;3.90;;;6.70;99.90;;;;;;4780917;29;20051;-67
2022/01/21 11:56:06;;;;;;;16.02;2.63;;;6.80;99.90;;;;;;4782812;29;20047;-67
2022/01/21 11:58:32;;;;;;;16.50;3.42;;;6.70;99.90;;;;;;4781882;29;20047;-67
2022/01/21 12:00:58;;;;;;;14.68;3.15;;;6.70;99.90;;;;;;4779315;29;20051;-67
2022/01/21 12:03:43;;;;;;;16.65;2.88;;;6.70;99.90;;;;;;4780066;29;20505;-67
2022/01/21 12:06:32;;;;;;;13.98;2.15;;;6.70;99.90;;;;;;4780794;29;20139;-66
2022/01/21 12:09:00;;;;;;;11.25;2.45;;;6.70;99.90;;;;;;4782444;29;20138;-67
2022/01/21 12:11:31;;;;;;;13.95;2.47;;;6.70;99.90;;;;;;4781092;29;20130;-67
2022/01/21 12:13:58;;;;;;;14.15;2.83;;;6.70;99.90;;;;;;4793832;29;20072;-67
2022/01/21 12:16:52;;;;;;;12.40;2.50;;;6.70;99.90;;;;;;4780790;29;20055;-67
2022/01/21 12:19:31;;;;;;;21.25;2.80;;;6.70;99.90;;;;;;4779496;29;20058;-67
2022/01/21 12:22:09;;;;;;;13.68;2.58;;;6.60;99.90;;;;;;4781215;29;20132;-67
2022/01/21 12:25:04;;;;;;;12.98;2.25;;;6.70;99.90;;;;;;4782294;29;20512;-67
2022/01/21 12:27:30;;;;;;;14.23;2.50;;;6.60;99.90;;;;;;4784014;29;20404;-67
2022/01/21 12:30:27;;;;;;;13.65;2.30;;;6.60;99.90;;;;;;4781921;29;20108;-67
2022/01/21 12:33:02;;;;;;;13.73;2.35;;;6.60;99.90;;;;;;4781707;29;20047;-67
2022/01/21 12:35:29;;;;;;;14.60;2.35;;;6.60;99.90;;;;;;4782688;29;20047;-67
2022/01/21 12:40:57;;;;;;;17.98;2.47;;;6.60;99.90;;;;;;4780131;29;20138;-67
2022/01/21 12:43:38;;;;;;;12.10;2.30;;;6.60;99.90;;;;;;4767027;29;20134;-67
2022/01/21 12:46:17;;;;;;;10.73;2.75;;;6.70;99.90;;;;;;4784591;29;20493;-67
2022/01/21 12:48:46;;;;;;;12.77;2.72;;;6.70;99.90;;;;;;4780522;29;20043;-67
2022/01/21 12:57:00;;;;;;;20.27;2.70;;;6.80;99.90;;;;;;4779912;29;20054;-67
2022/01/21 12:59:28;;;;;;;16.27;2.70;;;6.80;99.90;;;;;;4781407;29;20317;-67
2022/01/21 13:01:56;;;;;;;12.75;2.50;;;6.80;99.90;;;;;;4782665;29;20067;-69
2022/01/21 13:05:06;;;;;;;14.88;2.67;;;6.90;99.90;;;;;;4782936;29;20059;-68
2022/01/21 13:08:10;;;;;;;14.00;2.60;;;6.90;99.90;;;;;;4780774;29;20493;-68
2022/01/21 13:10:38;;;;;;;15.90;2.95;;;6.80;99.90;;;;;;4780839;29;21622;-68
2022/01/21 13:15:49;;;;;;;17.90;2.75;;;6.80;99.90;;;;;;4784243;29;20366;-68
2022/01/21 13:18:32;;;;;;;18.80;2.80;;;6.80;99.90;;;;;;4795198;29;20074;-68
2022/01/21 13:21:05;;;;;;;17.17;2.70;;;6.80;99.90;;;;;;4782535;29;20043;-68
2022/01/21 13:23:51;;;;;;;23.70;3.50;;;6.80;99.90;;;;;;4784714;29;20127;-68
2022/01/21 13:26:19;;;;;;;16.23;3.28;;;6.80;99.90;;;;;;4783332;29;20085;-68
2022/01/21 13:29:28;;;;;;;17.17;2.75;;;6.70;99.90;;;;;;4780594;29;20432;-68
2022/01/21 13:31:56;;;;;;;15.93;3.40;;;6.70;99.90;;;;;;4731914;30;20415;-68
2022/01/21 13:34:33;;;;;;;19.80;2.92;;;6.70;99.90;;;;;;4731999;30;20181;-68
2022/01/21 13:37:07;;;;;;;17.80;2.88;;;6.70;99.90;;;;;;4760664;29;20067;-68
2022/01/21 13:39:38;;;;;;;16.67;3.70;;;7.20;99.90;;;;;;4766079;29;20405;-68
2022/01/21 13:42:18;;;;;;;20.58;4.32;;;6.70;99.90;;;;;;4783426;29;20132;-68
2022/01/21 13:44:54;;;;;;;21.70;5.95;;;6.70;99.90;;;;;;4781377;29;20059;-68
2022/01/21 13:47:39;;;;;;;28.80;9.88;;;6.70;99.90;;;;;;4781740;29;20059;-68
2022/01/21 13:50:25;;;;;;;34.15;11.52;;;7.00;99.90;;;;;;4782381;29;20078;-69
2022/01/21 13:52:53;;;;;;;38.95;15.77;;;6.70;99.90;;;;;;4780011;29;20119;-68
2022/01/21 13:55:42;;;;;;;45.05;16.20;;;6.80;99.90;;;;;;4782836;29;20053;-68
2022/01/21 13:58:13;;;;;;;32.00;12.65;;;6.80;99.90;;;;;;4782915;29;20051;-68
2022/01/21 14:00:57;;;;;;;30.63;10.80;;;6.70;99.90;;;;;;4782577;29;20047;-68